sensor_id;sensor_type;location;lat;lon;timestamp;P1;durP1;ratioP1;P2;durP2;ratioP2
3918;SDS011;1974;48.670;8.994;2023-02-15T00:00:27;1.60;;;1.50;;
3918;SDS011;1974;48.670;8.994;2023-02-15T00:02:54;3.37;;;2.00;;
3918;SDS011;1974;48.670;8.994;2023-02-15T00:05:20;1.80;;;1.70;;
3918;SDS011;1974;48.670;8.994;2023-02-15T00:07:48;2.67;;;1.07;;
3918;SDS011;1974;48.670;8.994;2023-02-15T00:10:15;3.70;;;2.17;;
3918;SDS011;1974;48.670;8.994;2023-02-15T00:12:42;0.77;;;0.77;;
3918;SDS011;1974;48.670;8.994;2023-02-15T00:15:09;2.00;;;0.77;;
3918;SDS011;1974;48.670;8.994;2023-02-15T00:17:38;2.27;;;1.77;;
3918;SDS011;1974;48.670;8.994;2023-02-15T00:20:05;1.90;;;0.50;;
3918;SDS011;1974;48.670;8.994;2023-02-15T00:22:32;2.00;;;1.00;;
3918;SDS011;1974;48.670;8.994;2023-02-15T00:25:00;0.40;;;0.40;;
3918;SDS011;1974;48.670;8.994;2023-02-15T00:27:27;3.23;;;0.90;;
3918;SDS011;1974;48.670;8.994;2023-02-15T00:29:54;0.50;;;0.50;;
3918;SDS011;1974;48.670;8.994;2023-02-15T00:32:20;6.37;;;1.53;;
3918;SDS011;1974;48.670;8.994;2023-02-15T00:34:47;6.43;;;1.37;;
3918;SDS011;1974;48.670;8.994;2023-02-15T00:37:14;0.70;;;0.70;;
3918;SDS011;1974;48.670;8.994;2023-02-15T00:39:41;0.67;;;0.67;;
3918;SDS011;1974;48.670;8.994;2023-02-15T00:42:09;0.40;;;0.40;;
3918;SDS011;1974;48.670;8.994;2023-02-15T00:44:35;0.53;;;0.53;;
3918;SDS011;1974;48.670;8.994;2023-02-15T00:47:02;0.80;;;0.80;;
3918;SDS011;1974;48.670;8.994;2023-02-15T00:49:29;1.40;;;1.20;;
3918;SDS011;1974;48.670;8.994;2023-02-15T00:51:56;2.50;;;1.40;;
3918;SDS011;1974;48.670;8.994;2023-02-15T00:54:22;1.17;;;1.07;;
3918;SDS011;1974;48.670;8.994;2023-02-15T00:56:49;1.37;;;0.50;;
3918;SDS011;1974;48.670;8.994;2023-02-15T00:59:17;1.07;;;0.90;;
3918;SDS011;1974;48.670;8.994;2023-02-15T01:01:44;1.17;;;0.83;;
3918;SDS011;1974;48.670;8.994;2023-02-15T01:04:11;1.37;;;1.27;;
3918;SDS011;1974;48.670;8.994;2023-02-15T01:06:37;4.63;;;1.33;;
3918;SDS011;1974;48.670;8.994;2023-02-15T01:09:04;6.10;;;1.83;;
3918;SDS011;1974;48.670;8.994;2023-02-15T01:11:31;1.47;;;1.20;;
3918;SDS011;1974;48.670;8.994;2023-02-15T01:13:58;4.77;;;1.50;;
3918;SDS011;1974;48.670;8.994;2023-02-15T01:16:26;0.50;;;0.50;;
3918;SDS011;1974;48.670;8.994;2023-02-15T01:18:54;0.63;;;0.63;;
3918;SDS011;1974;48.670;8.994;2023-02-15T01:21:22;2.23;;;0.80;;
3918;SDS011;1974;48.670;8.994;2023-02-15T01:23:50;0.60;;;0.60;;
3918;SDS011;1974;48.670;8.994;2023-02-15T01:26:17;1.83;;;1.47;;
3918;SDS011;1974;48.670;8.994;2023-02-15T01:28:44;0.90;;;0.90;;
3918;SDS011;1974;48.670;8.994;2023-02-15T01:31:11;1.07;;;0.70;;
3918;SDS011;1974;48.670;8.994;2023-02-15T01:33:41;2.10;;;2.00;;
3918;SDS011;1974;48.670;8.994;2023-02-15T01:36:08;1.47;;;1.23;;
3918;SDS011;1974;48.670;8.994;2023-02-15T01:38:35;0.63;;;0.63;;
3918;SDS011;1974;48.670;8.994;2023-02-15T01:41:02;4.03;;;0.80;;
3918;SDS011;1974;48.670;8.994;2023-02-15T01:43:49;1.27;;;1.17;;
3918;SDS011;1974;48.670;8.994;2023-02-15T01:46:17;0.77;;;0.77;;
3918;SDS011;1974;48.670;8.994;2023-02-15T01:48:49;0.30;;;0.30;;
3918;SDS011;1974;48.670;8.994;2023-02-15T01:51:19;0.90;;;0.90;;
3918;SDS011;1974;48.670;8.994;2023-02-15T01:53:50;1.53;;;0.70;;
3918;SDS011;1974;48.670;8.994;2023-02-15T01:56:21;0.70;;;0.60;;
3918;SDS011;1974;48.670;8.994;2023-02-15T01:58:50;3.50;;;1.13;;
3918;SDS011;1974;48.670;8.994;2023-02-15T02:01:20;0.70;;;0.50;;
3918;SDS011;1974;48.670;8.994;2023-02-15T02:03:53;4.73;;;1.10;;
3918;SDS011;1974;48.670;8.994;2023-02-15T02:06:24;0.63;;;0.57;;
3918;SDS011;1974;48.670;8.994;2023-02-15T02:08:52;0.57;;;0.57;;
3918;SDS011;1974;48.670;8.994;2023-02-15T02:11:20;2.40;;;1.07;;
3918;SDS011;1974;48.670;8.994;2023-02-15T02:13:47;0.67;;;0.67;;
3918;SDS011;1974;48.670;8.994;2023-02-15T02:16:18;0.70;;;0.50;;
3918;SDS011;1974;48.670;8.994;2023-02-15T02:18:52;0.40;;;0.40;;
3918;SDS011;1974;48.670;8.994;2023-02-15T02:21:39;1.10;;;0.90;;
3918;SDS011;1974;48.670;8.994;2023-02-15T02:24:46;1.90;;;0.60;;
3918;SDS011;1974;48.670;8.994;2023-02-15T02:27:37;0.60;;;0.60;;
3918;SDS011;1974;48.670;8.994;2023-02-15T02:30:19;0.60;;;0.60;;
3918;SDS011;1974;48.670;8.994;2023-02-15T02:33:15;0.90;;;0.90;;
3918;SDS011;1974;48.670;8.994;2023-02-15T02:36:06;0.93;;;0.63;;
3918;SDS011;1974;48.670;8.994;2023-02-15T02:38:44;1.23;;;0.53;;
3918;SDS011;1974;48.670;8.994;2023-02-15T02:41:20;2.00;;;1.33;;
3918;SDS011;1974;48.670;8.994;2023-02-15T02:43:59;0.70;;;0.70;;
3918;SDS011;1974;48.670;8.994;2023-02-15T02:46:33;0.90;;;0.90;;
3918;SDS011;1974;48.670;8.994;2023-02-15T02:49:08;0.80;;;0.80;;
3918;SDS011;1974;48.670;8.994;2023-02-15T02:51:35;2.73;;;1.03;;
3918;SDS011;1974;48.670;8.994;2023-02-15T02:54:03;1.00;;;1.00;;
3918;SDS011;1974;48.670;8.994;2023-02-15T02:56:33;0.97;;;0.70;;
3918;SDS011;1974;48.670;8.994;2023-02-15T02:59:04;1.63;;;0.93;;
3918;SDS011;1974;48.670;8.994;2023-02-15T03:01:37;0.50;;;0.40;;
3918;SDS011;1974;48.670;8.994;2023-02-15T03:04:09;0.83;;;0.70;;
3918;SDS011;1974;48.670;8.994;2023-02-15T03:06:40;2.00;;;0.60;;
3918;SDS011;1974;48.670;8.994;2023-02-15T03:09:12;0.70;;;0.63;;
3918;SDS011;1974;48.670;8.994;2023-02-15T03:11:43;0.70;;;0.50;;
3918;SDS011;1974;48.670;8.994;2023-02-15T03:14:10;0.57;;;0.57;;
3918;SDS011;1974;48.670;8.994;2023-02-15T03:16:40;1.13;;;0.83;;
3918;SDS011;1974;48.670;8.994;2023-02-15T03:19:12;1.80;;;1.23;;
3918;SDS011;1974;48.670;8.994;2023-02-15T03:21:43;0.90;;;0.90;;
3918;SDS011;1974;48.670;8.994;2023-02-15T03:24:15;0.40;;;0.40;;
3918;SDS011;1974;48.670;8.994;2023-02-15T03:26:46;1.13;;;0.80;;
3918;SDS011;1974;48.670;8.994;2023-02-15T03:29:15;0.60;;;0.60;;
3918;SDS011;1974;48.670;8.994;2023-02-15T03:31:45;1.90;;;0.77;;
3918;SDS011;1974;48.670;8.994;2023-02-15T03:34:21;2.20;;;0.53;;
3918;SDS011;1974;48.670;8.994;2023-02-15T03:36:50;0.80;;;0.80;;
3918;SDS011;1974;48.670;8.994;2023-02-15T03:39:24;0.40;;;0.37;;
3918;SDS011;1974;48.670;8.994;2023-02-15T03:41:57;0.63;;;0.63;;
3918;SDS011;1974;48.670;8.994;2023-02-15T03:44:29;0.90;;;0.90;;
3918;SDS011;1974;48.670;8.994;2023-02-15T03:46:59;0.80;;;0.80;;
3918;SDS011;1974;48.670;8.994;2023-02-15T03:49:36;0.70;;;0.67;;
3918;SDS011;1974;48.670;8.994;2023-02-15T03:52:08;0.70;;;0.70;;
3918;SDS011;1974;48.670;8.994;2023-02-15T03:54:37;0.70;;;0.40;;
3918;SDS011;1974;48.670;8.994;2023-02-15T03:57:10;0.50;;;0.50;;
3918;SDS011;1974;48.670;8.994;2023-02-15T03:59:56;0.60;;;0.60;;
3918;SDS011;1974;48.670;8.994;2023-02-15T04:02:43;0.60;;;0.57;;
3918;SDS011;1974;48.670;8.994;2023-02-15T04:05:18;0.30;;;0.30;;
3918;SDS011;1974;48.670;8.994;2023-02-15T04:07:45;4.50;;;1.13;;
3918;SDS011;1974;48.670;8.994;2023-02-15T04:10:11;1.17;;;1.17;;
3918;SDS011;1974;48.670;8.994;2023-02-15T04:12:56;0.40;;;0.40;;
3918;SDS011;1974;48.670;8.994;2023-02-15T04:15:23;0.30;;;0.30;;
3918;SDS011;1974;48.670;8.994;2023-02-15T04:18:07;0.93;;;0.67;;
3918;SDS011;1974;48.670;8.994;2023-02-15T04:20:35;0.90;;;0.53;;
3918;SDS011;1974;48.670;8.994;2023-02-15T04:23:20;0.60;;;0.60;;
3918;SDS011;1974;48.670;8.994;2023-02-15T04:26:04;0.70;;;0.70;;
3918;SDS011;1974;48.670;8.994;2023-02-15T04:28:31;0.40;;;0.40;;
3918;SDS011;1974;48.670;8.994;2023-02-15T04:30:57;0.30;;;0.30;;
3918;SDS011;1974;48.670;8.994;2023-02-15T04:33:24;0.43;;;0.40;;
3918;SDS011;1974;48.670;8.994;2023-02-15T04:35:52;1.30;;;1.27;;
3918;SDS011;1974;48.670;8.994;2023-02-15T04:38:19;0.60;;;0.60;;
3918;SDS011;1974;48.670;8.994;2023-02-15T04:40:49;0.53;;;0.50;;
3918;SDS011;1974;48.670;8.994;2023-02-15T04:43:16;0.87;;;0.70;;
3918;SDS011;1974;48.670;8.994;2023-02-15T04:45:47;0.40;;;0.40;;
3918;SDS011;1974;48.670;8.994;2023-02-15T04:48:14;0.73;;;0.73;;
3918;SDS011;1974;48.670;8.994;2023-02-15T04:50:41;0.93;;;0.40;;
3918;SDS011;1974;48.670;8.994;2023-02-15T04:53:10;0.67;;;0.67;;
3918;SDS011;1974;48.670;8.994;2023-02-15T04:55:37;0.30;;;0.30;;
3918;SDS011;1974;48.670;8.994;2023-02-15T04:58:04;0.50;;;0.50;;
3918;SDS011;1974;48.670;8.994;2023-02-15T05:00:30;2.10;;;0.50;;
3918;SDS011;1974;48.670;8.994;2023-02-15T05:02:57;3.10;;;0.60;;
3918;SDS011;1974;48.670;8.994;2023-02-15T05:05:24;0.60;;;0.60;;
3918;SDS011;1974;48.670;8.994;2023-02-15T05:07:51;0.30;;;0.23;;
3918;SDS011;1974;48.670;8.994;2023-02-15T05:10:19;1.33;;;0.63;;
3918;SDS011;1974;48.670;8.994;2023-02-15T05:12:46;0.70;;;0.70;;
3918;SDS011;1974;48.670;8.994;2023-02-15T05:15:12;0.70;;;0.63;;
3918;SDS011;1974;48.670;8.994;2023-02-15T05:17:39;0.50;;;0.50;;
3918;SDS011;1974;48.670;8.994;2023-02-15T05:20:06;0.43;;;0.43;;
3918;SDS011;1974;48.670;8.994;2023-02-15T05:22:34;0.50;;;0.50;;
3918;SDS011;1974;48.670;8.994;2023-02-15T05:25:00;0.97;;;0.80;;
3918;SDS011;1974;48.670;8.994;2023-02-15T05:28:00;0.80;;;0.60;;
3918;SDS011;1974;48.670;8.994;2023-02-15T05:30:45;1.27;;;1.17;;
3918;SDS011;1974;48.670;8.994;2023-02-15T05:33:12;0.53;;;0.53;;
3918;SDS011;1974;48.670;8.994;2023-02-15T05:35:39;13.80;;;1.90;;
3918;SDS011;1974;48.670;8.994;2023-02-15T05:38:06;5.17;;;1.77;;
3918;SDS011;1974;48.670;8.994;2023-02-15T05:40:33;0.40;;;0.40;;
3918;SDS011;1974;48.670;8.994;2023-02-15T05:43:01;1.13;;;0.90;;
3918;SDS011;1974;48.670;8.994;2023-02-15T05:45:28;0.70;;;0.70;;
3918;SDS011;1974;48.670;8.994;2023-02-15T05:47:55;0.63;;;0.63;;
3918;SDS011;1974;48.670;8.994;2023-02-15T05:50:23;0.60;;;0.60;;
3918;SDS011;1974;48.670;8.994;2023-02-15T05:52:49;0.30;;;0.30;;
3918;SDS011;1974;48.670;8.994;2023-02-15T05:55:16;0.40;;;0.40;;
3918;SDS011;1974;48.670;8.994;2023-02-15T05:57:43;0.83;;;0.63;;
3918;SDS011;1974;48.670;8.994;2023-02-15T06:00:12;1.57;;;0.57;;
3918;SDS011;1974;48.670;8.994;2023-02-15T06:02:40;0.50;;;0.50;;
3918;SDS011;1974;48.670;8.994;2023-02-15T06:05:07;1.27;;;0.87;;
3918;SDS011;1974;48.670;8.994;2023-02-15T06:07:34;0.50;;;0.50;;
3918;SDS011;1974;48.670;8.994;2023-02-15T06:10:01;1.00;;;0.40;;
3918;SDS011;1974;48.670;8.994;2023-02-15T06:12:28;0.90;;;0.60;;
3918;SDS011;1974;48.670;8.994;2023-02-15T06:14:55;1.23;;;1.00;;
3918;SDS011;1974;48.670;8.994;2023-02-15T06:17:23;3.80;;;0.70;;
3918;SDS011;1974;48.670;8.994;2023-02-15T06:19:50;0.63;;;0.63;;
3918;SDS011;1974;48.670;8.994;2023-02-15T06:22:17;0.80;;;0.80;;
3918;SDS011;1974;48.670;8.994;2023-02-15T06:24:45;1.43;;;0.83;;
3918;SDS011;1974;48.670;8.994;2023-02-15T06:27:12;1.00;;;0.57;;
3918;SDS011;1974;48.670;8.994;2023-02-15T06:29:38;0.30;;;0.30;;
3918;SDS011;1974;48.670;8.994;2023-02-15T06:32:05;1.13;;;0.40;;
3918;SDS011;1974;48.670;8.994;2023-02-15T06:34:33;0.70;;;0.60;;
3918;SDS011;1974;48.670;8.994;2023-02-15T06:37:00;0.40;;;0.40;;
3918;SDS011;1974;48.670;8.994;2023-02-15T06:39:28;0.50;;;0.50;;
3918;SDS011;1974;48.670;8.994;2023-02-15T06:41:55;0.50;;;0.50;;
3918;SDS011;1974;48.670;8.994;2023-02-15T06:44:21;0.37;;;0.37;;
3918;SDS011;1974;48.670;8.994;2023-02-15T06:46:48;0.57;;;0.37;;
3918;SDS011;1974;48.670;8.994;2023-02-15T06:49:15;0.40;;;0.40;;
3918;SDS011;1974;48.670;8.994;2023-02-15T06:51:43;0.40;;;0.37;;
3918;SDS011;1974;48.670;8.994;2023-02-15T06:54:10;0.90;;;0.83;;
3918;SDS011;1974;48.670;8.994;2023-02-15T06:56:37;0.50;;;0.50;;
3918;SDS011;1974;48.670;8.994;2023-02-15T06:59:04;2.37;;;0.97;;
3918;SDS011;1974;48.670;8.994;2023-02-15T07:01:30;0.93;;;0.60;;
3918;SDS011;1974;48.670;8.994;2023-02-15T07:03:57;0.97;;;0.97;;
3918;SDS011;1974;48.670;8.994;2023-02-15T07:06:24;0.30;;;0.30;;
3918;SDS011;1974;48.670;8.994;2023-02-15T07:08:52;0.40;;;0.40;;
3918;SDS011;1974;48.670;8.994;2023-02-15T07:11:19;0.80;;;0.80;;
3918;SDS011;1974;48.670;8.994;2023-02-15T07:14:03;0.37;;;0.37;;
3918;SDS011;1974;48.670;8.994;2023-02-15T07:16:30;1.27;;;0.60;;
3918;SDS011;1974;48.670;8.994;2023-02-15T07:18:57;0.67;;;0.50;;
3918;SDS011;1974;48.670;8.994;2023-02-15T07:21:23;0.70;;;0.70;;
3918;SDS011;1974;48.670;8.994;2023-02-15T07:23:50;0.90;;;0.80;;
3918;SDS011;1974;48.670;8.994;2023-02-15T07:26:18;0.87;;;0.50;;
3918;SDS011;1974;48.670;8.994;2023-02-15T07:28:45;0.40;;;0.30;;
3918;SDS011;1974;48.670;8.994;2023-02-15T07:31:12;0.90;;;0.60;;
3918;SDS011;1974;48.670;8.994;2023-02-15T07:33:39;2.60;;;0.80;;
3918;SDS011;1974;48.670;8.994;2023-02-15T07:36:06;0.90;;;0.67;;
3918;SDS011;1974;48.670;8.994;2023-02-15T07:38:36;0.63;;;0.40;;
3918;SDS011;1974;48.670;8.994;2023-02-15T07:41:04;4.10;;;1.00;;
3918;SDS011;1974;48.670;8.994;2023-02-15T07:43:34;1.13;;;1.13;;
3918;SDS011;1974;48.670;8.994;2023-02-15T07:46:03;3.50;;;0.90;;
3918;SDS011;1974;48.670;8.994;2023-02-15T07:48:30;0.30;;;0.30;;
3918;SDS011;1974;48.670;8.994;2023-02-15T07:50:58;0.40;;;0.33;;
3918;SDS011;1974;48.670;8.994;2023-02-15T07:53:25;1.33;;;0.60;;
3918;SDS011;1974;48.670;8.994;2023-02-15T07:55:52;0.40;;;0.30;;
3918;SDS011;1974;48.670;8.994;2023-02-15T07:58:19;0.60;;;0.60;;
3918;SDS011;1974;48.670;8.994;2023-02-15T08:01:08;3.60;;;1.60;;
3918;SDS011;1974;48.670;8.994;2023-02-15T08:03:34;2.73;;;0.77;;
3918;SDS011;1974;48.670;8.994;2023-02-15T08:06:01;1.23;;;1.13;;
3918;SDS011;1974;48.670;8.994;2023-02-15T08:08:28;5.30;;;1.20;;
3918;SDS011;1974;48.670;8.994;2023-02-15T08:10:58;0.40;;;0.40;;
3918;SDS011;1974;48.670;8.994;2023-02-15T08:13:44;0.57;;;0.57;;
3918;SDS011;1974;48.670;8.994;2023-02-15T08:16:25;2.40;;;1.20;;
3918;SDS011;1974;48.670;8.994;2023-02-15T08:18:54;0.87;;;0.87;;
3918;SDS011;1974;48.670;8.994;2023-02-15T08:21:21;1.00;;;1.00;;
3918;SDS011;1974;48.670;8.994;2023-02-15T08:23:49;2.90;;;0.87;;
3918;SDS011;1974;48.670;8.994;2023-02-15T08:26:15;0.90;;;0.50;;
3918;SDS011;1974;48.670;8.994;2023-02-15T08:28:42;0.40;;;0.40;;
3918;SDS011;1974;48.670;8.994;2023-02-15T08:31:11;2.97;;;1.10;;
3918;SDS011;1974;48.670;8.994;2023-02-15T08:33:41;0.83;;;0.77;;
3918;SDS011;1974;48.670;8.994;2023-02-15T08:36:09;0.57;;;0.57;;
3918;SDS011;1974;48.670;8.994;2023-02-15T08:38:37;1.60;;;1.50;;
3918;SDS011;1974;48.670;8.994;2023-02-15T08:41:12;0.80;;;0.80;;
3918;SDS011;1974;48.670;8.994;2023-02-15T08:43:40;2.60;;;1.40;;
3918;SDS011;1974;48.670;8.994;2023-02-15T08:46:08;0.70;;;0.70;;
3918;SDS011;1974;48.670;8.994;2023-02-15T08:48:35;0.40;;;0.40;;
3918;SDS011;1974;48.670;8.994;2023-02-15T08:51:07;5.03;;;1.37;;
3918;SDS011;1974;48.670;8.994;2023-02-15T08:53:36;0.73;;;0.73;;
3918;SDS011;1974;48.670;8.994;2023-02-15T08:56:04;3.43;;;0.50;;
3918;SDS011;1974;48.670;8.994;2023-02-15T08:58:31;1.77;;;0.93;;
3918;SDS011;1974;48.670;8.994;2023-02-15T09:00:58;2.30;;;1.03;;
3918;SDS011;1974;48.670;8.994;2023-02-15T09:03:27;4.73;;;0.60;;
3918;SDS011;1974;48.670;8.994;2023-02-15T09:05:56;3.93;;;1.07;;
3918;SDS011;1974;48.670;8.994;2023-02-15T09:08:26;0.50;;;0.50;;
3918;SDS011;1974;48.670;8.994;2023-02-15T09:10:53;2.50;;;1.97;;
3918;SDS011;1974;48.670;8.994;2023-02-15T09:13:20;0.93;;;0.90;;
3918;SDS011;1974;48.670;8.994;2023-02-15T09:15:47;2.23;;;0.73;;
3918;SDS011;1974;48.670;8.994;2023-02-15T09:18:14;2.03;;;1.30;;
3918;SDS011;1974;48.670;8.994;2023-02-15T09:20:42;1.87;;;1.10;;
3918;SDS011;1974;48.670;8.994;2023-02-15T09:23:10;3.57;;;1.30;;
3918;SDS011;1974;48.670;8.994;2023-02-15T09:25:38;2.47;;;2.00;;
3918;SDS011;1974;48.670;8.994;2023-02-15T09:28:05;1.33;;;1.23;;
3918;SDS011;1974;48.670;8.994;2023-02-15T09:30:31;2.90;;;1.20;;
3918;SDS011;1974;48.670;8.994;2023-02-15T09:32:59;3.30;;;1.63;;
3918;SDS011;1974;48.670;8.994;2023-02-15T09:35:26;1.73;;;1.53;;
3918;SDS011;1974;48.670;8.994;2023-02-15T09:37:52;3.13;;;2.70;;
3918;SDS011;1974;48.670;8.994;2023-02-15T09:40:19;6.63;;;2.70;;
3918;SDS011;1974;48.670;8.994;2023-02-15T09:42:56;4.70;;;1.77;;
3918;SDS011;1974;48.670;8.994;2023-02-15T09:48:28;2.90;;;1.90;;
3918;SDS011;1974;48.670;8.994;2023-02-15T09:51:10;5.00;;;2.83;;
3918;SDS011;1974;48.670;8.994;2023-02-15T09:53:56;5.20;;;2.50;;
3918;SDS011;1974;48.670;8.994;2023-02-15T09:56:37;6.10;;;3.63;;
3918;SDS011;1974;48.670;8.994;2023-02-15T09:59:10;6.50;;;4.10;;
3918;SDS011;1974;48.670;8.994;2023-02-15T10:01:47;5.63;;;2.97;;
3918;SDS011;1974;48.670;8.994;2023-02-15T10:04:32;6.93;;;3.53;;
3918;SDS011;1974;48.670;8.994;2023-02-15T10:07:17;3.58;;;2.85;;
3918;SDS011;1974;48.670;8.994;2023-02-15T10:09:58;7.30;;;3.10;;
3918;SDS011;1974;48.670;8.994;2023-02-15T10:12:41;7.27;;;3.60;;
3918;SDS011;1974;48.670;8.994;2023-02-15T10:15:24;3.47;;;2.60;;
3918;SDS011;1974;48.670;8.994;2023-02-15T10:18:10;5.40;;;2.90;;
3918;SDS011;1974;48.670;8.994;2023-02-15T10:20:49;3.87;;;3.03;;
3918;SDS011;1974;48.670;8.994;2023-02-15T10:23:31;4.27;;;2.20;;
3918;SDS011;1974;48.670;8.994;2023-02-15T10:26:08;3.40;;;2.40;;
3918;SDS011;1974;48.670;8.994;2023-02-15T10:28:42;6.50;;;2.20;;
3918;SDS011;1974;48.670;8.994;2023-02-15T10:31:15;3.07;;;2.83;;
3918;SDS011;1974;48.670;8.994;2023-02-15T10:33:52;6.87;;;3.17;;
3918;SDS011;1974;48.670;8.994;2023-02-15T10:36:36;6.40;;;3.30;;
3918;SDS011;1974;48.670;8.994;2023-02-15T10:39:16;3.63;;;2.70;;
3918;SDS011;1974;48.670;8.994;2023-02-15T10:41:50;4.50;;;2.75;;
3918;SDS011;1974;48.670;8.994;2023-02-15T10:44:28;7.93;;;2.42;;
3918;SDS011;1974;48.670;8.994;2023-02-15T10:47:24;7.07;;;2.60;;
3918;SDS011;1974;48.670;8.994;2023-02-15T10:50:17;4.40;;;2.67;;
3918;SDS011;1974;48.670;8.994;2023-02-15T10:52:55;4.18;;;3.30;;
3918;SDS011;1974;48.670;8.994;2023-02-15T10:55:37;3.83;;;2.67;;
3918;SDS011;1974;48.670;8.994;2023-02-15T10:58:14;5.70;;;3.17;;
3918;SDS011;1974;48.670;8.994;2023-02-15T11:00:50;3.17;;;2.70;;
3918;SDS011;1974;48.670;8.994;2023-02-15T11:03:33;4.70;;;3.22;;
3918;SDS011;1974;48.670;8.994;2023-02-15T11:06:17;4.43;;;3.35;;
3918;SDS011;1974;48.670;8.994;2023-02-15T11:08:46;4.65;;;3.05;;
3918;SDS011;1974;48.670;8.994;2023-02-15T11:11:19;6.40;;;2.90;;
3918;SDS011;1974;48.670;8.994;2023-02-15T11:13:50;5.63;;;2.80;;
3918;SDS011;1974;48.670;8.994;2023-02-15T11:16:20;4.33;;;2.40;;
3918;SDS011;1974;48.670;8.994;2023-02-15T11:18:53;2.37;;;2.07;;
3918;SDS011;1974;48.670;8.994;2023-02-15T11:21:24;2.03;;;1.53;;
3918;SDS011;1974;48.670;8.994;2023-02-15T11:23:54;6.90;;;6.10;;
3918;SDS011;1974;48.670;8.994;2023-02-15T11:26:24;1.97;;;1.30;;
3918;SDS011;1974;48.670;8.994;2023-02-15T11:28:57;3.20;;;1.73;;
3918;SDS011;1974;48.670;8.994;2023-02-15T11:31:40;1.70;;;1.60;;
3918;SDS011;1974;48.670;8.994;2023-02-15T11:34:13;6.37;;;2.07;;
3918;SDS011;1974;48.670;8.994;2023-02-15T11:36:45;2.10;;;1.20;;
3918;SDS011;1974;48.670;8.994;2023-02-15T11:39:15;3.43;;;1.50;;
3918;SDS011;1974;48.670;8.994;2023-02-15T11:41:44;2.17;;;1.20;;
3918;SDS011;1974;48.670;8.994;2023-02-15T11:44:17;2.47;;;1.17;;
3918;SDS011;1974;48.670;8.994;2023-02-15T11:46:48;3.80;;;1.90;;
3918;SDS011;1974;48.670;8.994;2023-02-15T11:49:20;5.83;;;1.67;;
3918;SDS011;1974;48.670;8.994;2023-02-15T11:51:48;2.13;;;1.67;;
3918;SDS011;1974;48.670;8.994;2023-02-15T11:54:16;1.50;;;1.33;;
3918;SDS011;1974;48.670;8.994;2023-02-15T11:56:45;5.13;;;1.47;;
3918;SDS011;1974;48.670;8.994;2023-02-15T11:59:12;6.43;;;2.07;;
3918;SDS011;1974;48.670;8.994;2023-02-15T12:01:47;3.27;;;1.53;;
3918;SDS011;1974;48.670;8.994;2023-02-15T12:04:15;5.27;;;2.47;;
3918;SDS011;1974;48.670;8.994;2023-02-15T12:06:49;1.80;;;1.10;;
3918;SDS011;1974;48.670;8.994;2023-02-15T12:09:23;5.60;;;1.70;;
3918;SDS011;1974;48.670;8.994;2023-02-15T12:12:08;1.70;;;1.00;;
3918;SDS011;1974;48.670;8.994;2023-02-15T12:14:47;2.20;;;2.00;;
3918;SDS011;1974;48.670;8.994;2023-02-15T12:17:15;2.23;;;1.50;;
3918;SDS011;1974;48.670;8.994;2023-02-15T12:19:44;4.17;;;1.57;;
3918;SDS011;1974;48.670;8.994;2023-02-15T12:22:18;4.73;;;1.20;;
3918;SDS011;1974;48.670;8.994;2023-02-15T12:24:49;2.83;;;1.70;;
3918;SDS011;1974;48.670;8.994;2023-02-15T12:27:19;6.00;;;1.30;;
3918;SDS011;1974;48.670;8.994;2023-02-15T12:29:48;4.67;;;1.80;;
3918;SDS011;1974;48.670;8.994;2023-02-15T12:32:19;3.00;;;1.43;;
3918;SDS011;1974;48.670;8.994;2023-02-15T12:34:50;1.27;;;0.90;;
3918;SDS011;1974;48.670;8.994;2023-02-15T12:37:21;4.67;;;1.77;;
3918;SDS011;1974;48.670;8.994;2023-02-15T12:39:52;2.33;;;1.57;;
3918;SDS011;1974;48.670;8.994;2023-02-15T12:42:21;1.33;;;0.80;;
3918;SDS011;1974;48.670;8.994;2023-02-15T12:44:54;4.00;;;1.67;;
3918;SDS011;1974;48.670;8.994;2023-02-15T12:47:23;1.93;;;1.40;;
3918;SDS011;1974;48.670;8.994;2023-02-15T12:50:06;1.43;;;0.87;;
3918;SDS011;1974;48.670;8.994;2023-02-15T12:52:48;2.13;;;1.30;;
3918;SDS011;1974;48.670;8.994;2023-02-15T12:55:18;1.50;;;1.00;;
3918;SDS011;1974;48.670;8.994;2023-02-15T12:57:47;3.03;;;1.10;;
3918;SDS011;1974;48.670;8.994;2023-02-15T13:00:25;2.83;;;1.00;;
3918;SDS011;1974;48.670;8.994;2023-02-15T13:02:56;0.93;;;0.63;;
3918;SDS011;1974;48.670;8.994;2023-02-15T13:05:28;1.23;;;0.57;;
3918;SDS011;1974;48.670;8.994;2023-02-15T13:07:58;1.40;;;0.97;;
3918;SDS011;1974;48.670;8.994;2023-02-15T13:10:28;1.00;;;0.90;;
3918;SDS011;1974;48.670;8.994;2023-02-15T13:12:57;1.00;;;0.87;;
3918;SDS011;1974;48.670;8.994;2023-02-15T13:15:28;0.70;;;0.70;;
3918;SDS011;1974;48.670;8.994;2023-02-15T13:18:00;2.50;;;2.00;;
3918;SDS011;1974;48.670;8.994;2023-02-15T13:20:30;1.70;;;1.20;;
3918;SDS011;1974;48.670;8.994;2023-02-15T13:23:02;2.87;;;1.00;;
3918;SDS011;1974;48.670;8.994;2023-02-15T13:25:32;3.37;;;1.00;;
3918;SDS011;1974;48.670;8.994;2023-02-15T13:28:05;5.60;;;1.53;;
3918;SDS011;1974;48.670;8.994;2023-02-15T13:30:37;1.60;;;1.17;;
3918;SDS011;1974;48.670;8.994;2023-02-15T13:33:11;1.80;;;0.73;;
3918;SDS011;1974;48.670;8.994;2023-02-15T13:35:44;1.00;;;0.90;;
3918;SDS011;1974;48.670;8.994;2023-02-15T13:38:21;1.03;;;0.80;;
3918;SDS011;1974;48.670;8.994;2023-02-15T13:41:00;1.43;;;0.90;;
3918;SDS011;1974;48.670;8.994;2023-02-15T13:43:35;1.27;;;0.93;;
3918;SDS011;1974;48.670;8.994;2023-02-15T13:46:15;2.13;;;1.50;;
3918;SDS011;1974;48.670;8.994;2023-02-15T13:48:51;2.63;;;1.57;;
3918;SDS011;1974;48.670;8.994;2023-02-15T13:51:27;2.00;;;1.10;;
3918;SDS011;1974;48.670;8.994;2023-02-15T13:54:16;3.27;;;1.13;;
3918;SDS011;1974;48.670;8.994;2023-02-15T13:57:05;2.10;;;1.47;;
3918;SDS011;1974;48.670;8.994;2023-02-15T13:59:51;3.00;;;1.50;;
3918;SDS011;1974;48.670;8.994;2023-02-15T14:05:27;2.93;;;2.00;;
3918;SDS011;1974;48.670;8.994;2023-02-15T14:08:10;3.00;;;2.13;;
3918;SDS011;1974;48.670;8.994;2023-02-15T14:10:43;3.63;;;1.60;;
3918;SDS011;1974;48.670;8.994;2023-02-15T14:13:29;5.27;;;1.50;;
3918;SDS011;1974;48.670;8.994;2023-02-15T14:16:20;5.30;;;2.50;;
3918;SDS011;1974;48.670;8.994;2023-02-15T14:18:59;3.53;;;1.70;;
3918;SDS011;1974;48.670;8.994;2023-02-15T14:21:41;4.53;;;2.07;;
3918;SDS011;1974;48.670;8.994;2023-02-15T14:24:21;2.37;;;1.57;;
3918;SDS011;1974;48.670;8.994;2023-02-15T14:26:57;3.00;;;1.50;;
3918;SDS011;1974;48.670;8.994;2023-02-15T14:29:38;4.07;;;2.23;;
3918;SDS011;1974;48.670;8.994;2023-02-15T14:32:13;5.00;;;1.80;;
3918;SDS011;1974;48.670;8.994;2023-02-15T14:34:45;4.23;;;2.57;;
3918;SDS011;1974;48.670;8.994;2023-02-15T14:37:16;3.60;;;1.13;;
3918;SDS011;1974;48.670;8.994;2023-02-15T14:39:51;3.27;;;1.57;;
3918;SDS011;1974;48.670;8.994;2023-02-15T14:42:40;1.80;;;1.30;;
3918;SDS011;1974;48.670;8.994;2023-02-15T14:45:17;2.37;;;2.17;;
3918;SDS011;1974;48.670;8.994;2023-02-15T14:47:48;3.93;;;1.87;;
3918;SDS011;1974;48.670;8.994;2023-02-15T14:50:35;5.43;;;1.97;;
3918;SDS011;1974;48.670;8.994;2023-02-15T14:56:15;3.53;;;1.47;;
3918;SDS011;1974;48.670;8.994;2023-02-15T14:58:54;2.03;;;1.57;;
3918;SDS011;1974;48.670;8.994;2023-02-15T15:01:25;5.90;;;1.43;;
3918;SDS011;1974;48.670;8.994;2023-02-15T15:03:54;2.60;;;1.93;;
3918;SDS011;1974;48.670;8.994;2023-02-15T15:06:25;4.63;;;2.00;;
3918;SDS011;1974;48.670;8.994;2023-02-15T15:08:54;3.70;;;1.33;;
3918;SDS011;1974;48.670;8.994;2023-02-15T15:11:39;2.97;;;1.63;;
3918;SDS011;1974;48.670;8.994;2023-02-15T15:14:09;7.23;;;2.30;;
3918;SDS011;1974;48.670;8.994;2023-02-15T15:16:50;8.03;;;2.23;;
3918;SDS011;1974;48.670;8.994;2023-02-15T15:22:33;4.73;;;2.23;;
3918;SDS011;1974;48.670;8.994;2023-02-15T15:25:01;2.00;;;1.87;;
3918;SDS011;1974;48.670;8.994;2023-02-15T15:27:47;3.80;;;2.37;;
3918;SDS011;1974;48.670;8.994;2023-02-15T15:36:29;1.50;;;1.10;;
3918;SDS011;1974;48.670;8.994;2023-02-15T15:39:11;5.23;;;2.10;;
3918;SDS011;1974;48.670;8.994;2023-02-15T15:41:51;2.80;;;1.77;;
3918;SDS011;1974;48.670;8.994;2023-02-15T15:44:35;5.63;;;2.03;;
3918;SDS011;1974;48.670;8.994;2023-02-15T15:47:33;2.67;;;1.03;;
3918;SDS011;1974;48.670;8.994;2023-02-15T15:50:14;5.07;;;2.17;;
3918;SDS011;1974;48.670;8.994;2023-02-15T15:52:44;2.80;;;1.60;;
3918;SDS011;1974;48.670;8.994;2023-02-15T15:55:14;3.77;;;1.67;;
3918;SDS011;1974;48.670;8.994;2023-02-15T15:57:44;1.43;;;1.10;;
3918;SDS011;1974;48.670;8.994;2023-02-15T16:00:31;2.50;;;1.63;;
3918;SDS011;1974;48.670;8.994;2023-02-15T16:03:01;2.80;;;1.97;;